Time;durP1;ratioP1;P1;durP2;ratioP2;P2;SDS_P1;SDS_P2;PMS_P1;PMS_P2;Temp;Humidity;BMP_temperature;BMP_pressure;BME280_temperature;BME280_humidity;BME280_pressure;Samples;Min_cycle;Max_cycle;Signal;HPM_P1;HPM_P2
2023/01/01 00:01:12;;;;;;;22.45;10.05;;;13.90;1.00;;;;;;5036473;28;20053;-27
2023/01/01 00:03:38;;;;;;;20.38;8.18;;;13.80;1.00;;;;;;5036416;28;20038;-27
2023/01/01 00:06:06;;;;;;;20.98;10.07;;;13.90;1.00;;;;;;5034779;28;20062;-28
2023/01/01 00:08:33;;;;;;;19.33;9.85;;;13.90;99.90;;;;;;5036832;28;20432;-27
2023/01/01 00:11:01;;;;;;;20.73;8.45;;;13.90;1.00;;;;;;5036301;28;20056;-27
2023/01/01 00:13:27;;;;;;;23.05;11.05;;;13.90;99.90;;;;;;5036227;28;20080;-27
2023/01/01 00:15:52;;;;;;;22.75;10.32;;;13.90;99.90;;;;;;5036173;28;20096;-27
2023/01/01 00:18:18;;;;;;;19.65;10.20;;;14.00;99.90;;;;;;5036139;28;20088;-27
2023/01/01 00:20:44;;;;;;;13.27;8.18;;;14.00;99.90;;;;;;5035359;28;20095;-27
2023/01/01 00:23:10;;;;;;;24.02;10.00;;;13.90;1.00;;;;;;5036051;28;20049;-27
2023/01/01 00:25:35;;;;;;;20.83;9.38;;;13.90;99.90;;;;;;5036022;28;20059;-27
2023/01/01 00:28:02;;;;;;;19.23;10.05;;;13.90;99.90;;;;;;5035875;28;20053;-27
2023/01/01 00:30:27;;;;;;;25.40;11.05;;;13.90;1.00;;;;;;5035742;28;20514;-27
2023/01/01 00:32:53;;;;;;;20.60;9.80;;;13.90;1.00;;;;;;5036140;28;20132;-27
2023/01/01 00:35:19;;;;;;;21.65;10.88;;;13.90;1.00;;;;;;5035268;28;20400;-27
2023/01/01 00:37:45;;;;;;;19.58;10.18;;;13.90;1.00;;;;;;5035833;28;20128;-27
2023/01/01 00:40:11;;;;;;;17.35;10.02;;;13.80;45.80;;;;;;5035741;28;20092;-27
2023/01/01 00:42:40;;;;;;;28.63;11.10;;;13.80;16.60;;;;;;5034571;28;20452;-27
2023/01/01 00:45:07;;;;;;;21.15;11.07;;;13.80;1.00;;;;;;5035668;28;20045;-28
2023/01/01 00:47:32;;;;;;;23.38;9.65;;;13.80;1.00;;;;;;5034390;28;20048;-27
2023/01/01 00:49:58;;;;;;;19.05;9.85;;;13.80;99.90;;;;;;5035412;28;20049;-27
2023/01/01 00:52:24;;;;;;;23.63;11.05;;;13.90;99.90;;;;;;5018150;28;20041;-27
2023/01/01 00:54:50;;;;;;;20.92;9.60;;;13.90;99.90;;;;;;5035423;28;20060;-27
2023/01/01 00:57:15;;;;;;;21.67;12.38;;;13.90;1.00;;;;;;5034547;28;20133;-27
2023/01/01 00:59:41;;;;;;;22.73;13.13;;;14.00;99.90;;;;;;5034040;28;20046;-27
2023/01/01 01:02:07;;;;;;;28.63;15.25;;;13.70;99.90;;;;;;5001855;28;20053;-28
2023/01/01 01:04:33;;;;;;;25.33;16.45;;;13.30;99.90;;;;;;5035021;28;20056;-28
2023/01/01 01:06:58;;;;;;;29.92;16.98;;;13.10;1.00;;;;;;5017548;28;20062;-28
2023/01/01 01:09:24;;;;;;;33.60;18.13;;;13.00;1.00;;;;;;5034849;28;20050;-28
2023/01/01 01:11:50;;;;;;;28.30;19.90;;;13.00;1.00;;;;;;5035148;28;20060;-28
2023/01/01 01:14:16;;;;;;;30.20;18.33;;;13.10;1.00;;;;;;5035020;28;20104;-28
2023/01/01 01:16:41;;;;;;;37.17;20.67;;;13.20;99.90;;;;;;5000845;28;20054;-28
2023/01/01 01:19:12;;;;;;;32.47;18.75;;;13.30;99.90;;;;;;5017343;28;20103;-28
2023/01/01 01:21:38;;;;;;;32.88;20.05;;;13.40;99.90;;;;;;5035549;28;20050;-28
2023/01/01 01:24:04;;;;;;;31.70;19.92;;;13.40;99.90;;;;;;5035496;28;20044;-28
2023/01/01 01:26:32;;;;;;;40.38;21.10;;;13.40;99.90;;;;;;5035436;28;20053;-28
2023/01/01 01:28:58;;;;;;;31.15;22.25;;;13.40;99.90;;;;;;5034825;28;20060;-27
2023/01/01 01:31:27;;;;;;;40.67;24.30;;;13.40;99.90;;;;;;5034247;28;20049;-27
2023/01/01 01:33:53;;;;;;;38.28;27.42;;;13.20;1.00;;;;;;5034180;28;20076;-28
2023/01/01 01:36:20;;;;;;;45.95;32.13;;;13.00;99.90;;;;;;5034649;28;20045;-26
2023/01/01 01:38:46;;;;;;;48.10;36.13;;;12.80;99.90;;;;;;5034662;28;20049;-26
2023/01/01 01:41:14;;;;;;;58.35;42.55;;;12.50;99.90;;;;;;5034556;28;20049;-27
2023/01/01 01:43:40;;;;;;;54.35;39.47;;;12.20;99.90;;;;;;5034216;28;20420;-26
2023/01/01 01:46:12;;;;;;;66.45;41.67;;;12.00;99.90;;;;;;5016820;28;20055;-27
2023/01/01 01:48:45;;;;;;;55.95;43.42;;;12.00;99.90;;;;;;5035028;28;20049;-26
2023/01/01 01:51:14;;;;;;;67.65;48.17;;;11.80;99.90;;;;;;5034955;28;20095;-26
2023/01/01 01:53:54;;;;;;;71.40;49.70;;;11.80;99.90;;;;;;5034235;28;20080;-27
2023/01/01 01:56:39;;;;;;;67.82;50.10;;;11.80;99.90;;;;;;5017052;28;20124;-27
2023/01/01 01:59:05;;;;;;;65.25;44.60;;;11.70;99.90;;;;;;5016233;28;20057;-27
2023/01/01 02:01:31;;;;;;;71.85;49.50;;;11.60;99.90;;;;;;5034219;28;20064;-28
2023/01/01 02:03:59;;;;;;;65.03;47.05;;;11.70;99.90;;;;;;5017071;28;20045;-28
2023/01/01 02:06:29;;;;;;;72.70;49.17;;;11.60;99.90;;;;;;5033832;28;20065;-27
2023/01/01 02:09:01;;;;;;;73.18;50.65;;;11.60;99.90;;;;;;5034158;28;20089;-28
2023/01/01 02:11:27;;;;;;;72.13;47.95;;;11.60;99.90;;;;;;5034961;28;20124;-27
2023/01/01 02:13:55;;;;;;;54.92;40.92;;;11.60;99.90;;;;;;5000876;28;20556;-28
2023/01/01 02:16:32;;;;;;;67.82;48.33;;;11.70;99.90;;;;;;5033909;28;20087;-27
2023/01/01 02:19:12;;;;;;;64.53;42.92;;;11.60;99.90;;;;;;5033940;28;20128;-28
2023/01/01 02:22:23;;;;;;;51.80;40.92;;;11.70;99.90;;;;;;5034044;28;20104;-28
2023/01/01 02:24:56;;;;;;;63.03;43.45;;;11.80;99.90;;;;;;5016842;28;20053;-28
2023/01/01 02:27:52;;;;;;;58.30;43.58;;;11.80;99.90;;;;;;5000362;28;20053;-28
2023/01/01 02:30:19;;;;;;;62.85;44.53;;;11.70;99.90;;;;;;5016142;28;20049;-28
2023/01/01 02:32:49;;;;;;;75.22;52.15;;;11.70;99.90;;;;;;5034359;28;20056;-28
2023/01/01 02:35:33;;;;;;;76.13;48.67;;;11.60;99.90;;;;;;5016909;28;20090;-28
2023/01/01 02:38:16;;;;;;;72.70;52.67;;;11.60;99.90;;;;;;5016671;28;20392;-27
2023/01/01 02:40:49;;;;;;;85.57;52.13;;;11.50;99.90;;;;;;5033709;28;20046;-26
2023/01/01 02:43:15;;;;;;;77.85;55.63;;;11.60;99.90;;;;;;5033360;28;20503;-28
2023/01/01 02:45:41;;;;;;;68.38;50.63;;;11.50;99.90;;;;;;5033630;28;20080;-27
2023/01/01 02:48:58;;;;;;;79.78;53.47;;;11.50;99.90;;;;;;5033598;28;20046;-27
2023/01/01 02:51:41;;;;;;;70.05;49.13;;;11.50;99.90;;;;;;4998797;28;20053;-28
2023/01/01 02:54:30;;;;;;;74.43;47.33;;;11.40;99.90;;;;;;5034324;28;20103;-27
2023/01/01 02:57:20;;;;;;;76.15;51.30;;;11.50;99.90;;;;;;5032909;28;20565;-26
2023/01/01 03:03:18;;;;;;;78.18;49.70;;;11.30;99.90;;;;;;5010320;28;20049;-27
2023/01/01 03:08:59;;;;;;;93.75;54.05;;;11.20;99.90;;;;;;5033981;28;20407;-26
2023/01/01 03:11:44;;;;;;;66.38;43.47;;;11.10;99.90;;;;;;5003892;28;20059;-27
2023/01/01 03:14:39;;;;;;;59.20;44.17;;;11.10;99.90;;;;;;4999778;28;20124;-27
2023/01/01 03:17:25;;;;;;;60.13;39.72;;;11.20;99.90;;;;;;5033370;28;20416;-26
2023/01/01 03:19:55;;;;;;;56.42;36.65;;;11.20;99.90;;;;;;5016338;28;20061;-27
2023/01/01 03:22:25;;;;;;;54.88;35.05;;;11.20;99.90;;;;;;5033314;28;20144;-27
2023/01/01 03:24:57;;;;;;;46.53;27.77;;;11.30;99.90;;;;;;5033537;28;20496;-26
2023/01/01 03:27:33;;;;;;;37.78;22.70;;;11.30;99.90;;;;;;5033217;28;20089;-27
2023/01/01 03:30:02;;;;;;;34.83;20.25;;;11.30;99.90;;;;;;5016686;28;20503;-26
2023/01/01 03:35:26;;;;;;;31.80;17.77;;;11.30;99.90;;;;;;5033086;28;20096;-26
2023/01/01 03:37:54;;;;;;;27.15;13.90;;;11.30;99.90;;;;;;5033171;28;20049;-27
2023/01/01 03:40:21;;;;;;;24.65;13.82;;;11.30;99.90;;;;;;5033124;28;20103;-26
2023/01/01 03:43:05;;;;;;;19.80;12.07;;;11.20;99.90;;;;;;5033654;28;20119;-26
2023/01/01 03:45:44;;;;;;;19.92;10.70;;;11.20;99.90;;;;;;5033661;28;20081;-26
2023/01/01 03:48:11;;;;;;;18.67;10.18;;;11.20;99.90;;;;;;5015675;28;20055;-26
2023/01/01 03:50:49;;;;;;;21.70;11.20;;;11.10;99.90;;;;;;5033014;28;20060;-26
2023/01/01 03:53:35;;;;;;;23.13;11.35;;;11.10;99.90;;;;;;5015409;28;20041;-26
2023/01/01 03:56:25;;;;;;;27.00;11.65;;;11.00;99.90;;;;;;5000898;28;20053;-26
2023/01/01 03:58:53;;;;;;;20.45;11.48;;;10.90;99.90;;;;;;5019063;28;20063;-26
2023/01/01 04:01:30;;;;;;;17.88;10.70;;;10.90;99.90;;;;;;5036491;28;20127;-26
2023/01/01 04:03:57;;;;;;;21.23;12.13;;;10.90;99.90;;;;;;5036986;28;20385;-27
2023/01/01 04:06:25;;;;;;;25.95;12.75;;;10.90;99.90;;;;;;5036206;28;20053;-27
2023/01/01 04:08:54;;;;;;;18.98;10.65;;;10.90;99.90;;;;;;5002539;28;20056;-27
2023/01/01 04:14:09;;;;;;;13.45;7.25;;;11.00;99.90;;;;;;5036993;28;20127;-26
2023/01/01 04:16:35;;;;;;;20.83;8.95;;;11.00;99.90;;;;;;5018557;28;20483;-26
2023/01/01 04:19:05;;;;;;;21.35;9.18;;;11.00;99.90;;;;;;5003112;28;20050;-27
2023/01/01 04:21:32;;;;;;;23.65;6.85;;;11.10;99.90;;;;;;5003099;28;20058;-26
2023/01/01 04:23:58;;;;;;;20.73;6.60;;;11.00;99.90;;;;;;5019214;28;20426;-26
2023/01/01 04:26:24;;;;;;;16.17;5.30;;;11.10;99.90;;;;;;5018554;28;20053;-26
2023/01/01 04:28:49;;;;;;;13.50;4.30;;;11.10;99.90;;;;;;5036043;28;20502;-25
2023/01/01 04:31:15;;;;;;;10.48;4.25;;;11.20;99.90;;;;;;5018660;28;20053;-25
2023/01/01 04:33:41;;;;;;;8.48;3.25;;;11.20;99.90;;;;;;5018821;28;20120;-25
2023/01/01 04:36:09;;;;;;;33.35;3.67;;;11.30;99.90;;;;;;5036122;28;20048;-25
2023/01/01 04:38:35;;;;;;;11.23;3.25;;;11.30;99.90;;;;;;5036086;28;20132;-26
2023/01/01 04:41:04;;;;;;;8.32;2.88;;;11.40;99.90;;;;;;5035718;28;20056;-27
2023/01/01 04:43:30;;;;;;;8.32;2.30;;;11.40;99.90;;;;;;5017972;28;20504;-27
2023/01/01 04:45:58;;;;;;;20.23;3.42;;;11.50;99.90;;;;;;5018181;28;20136;-27
2023/01/01 04:48:27;;;;;;;21.35;3.60;;;11.50;99.90;;;;;;5018979;28;20049;-27
2023/01/01 04:51:05;;;;;;;17.95;3.60;;;11.60;99.90;;;;;;5036079;28;20053;-27
2023/01/01 04:53:33;;;;;;;27.83;4.95;;;11.60;99.90;;;;;;5036313;28;20353;-27
2023/01/01 04:56:12;;;;;;;23.42;4.90;;;11.60;99.90;;;;;;5035492;28;20056;-27
2023/01/01 04:58:39;;;;;;;17.88;4.22;;;11.70;99.90;;;;;;5035473;28;20484;-28
2023/01/01 05:01:06;;;;;;;20.35;5.00;;;11.60;99.90;;;;;;5035396;28;20411;-27
2023/01/01 05:03:35;;;;;;;20.17;4.97;;;11.70;99.90;;;;;;5035869;28;20046;-28
2023/01/01 05:06:02;;;;;;;22.10;5.13;;;11.70;99.90;;;;;;5008955;28;20065;-28
2023/01/01 05:08:30;;;;;;;19.08;5.25;;;11.60;99.90;;;;;;5035316;28;20057;-28
2023/01/01 05:11:04;;;;;;;16.23;4.20;;;11.60;99.90;;;;;;5035167;28;20183;-28
2023/01/01 05:13:30;;;;;;;23.83;5.25;;;11.60;99.90;;;;;;5034462;28;20396;-28
2023/01/01 05:15:56;;;;;;;12.90;3.97;;;11.50;99.90;;;;;;5035168;28;20050;-28
2023/01/01 05:18:25;;;;;;;15.57;3.67;;;11.50;99.90;;;;;;5034775;28;20049;-28
2023/01/01 05:20:50;;;;;;;17.27;3.45;;;11.50;99.90;;;;;;5018122;28;20049;-28
2023/01/01 05:23:16;;;;;;;14.50;3.13;;;11.60;99.90;;;;;;5035018;28;20598;-28
2023/01/01 05:25:43;;;;;;;12.60;2.88;;;11.60;99.90;;;;;;5035242;28;20416;-28
2023/01/01 05:28:08;;;;;;;14.63;3.53;;;11.70;99.90;;;;;;5034898;28;20138;-28
2023/01/01 05:30:39;;;;;;;15.27;3.70;;;11.80;99.90;;;;;;5033740;28;20103;-28
2023/01/01 05:33:04;;;;;;;11.50;2.78;;;11.90;99.90;;;;;;5035071;28;20049;-28
2023/01/01 05:35:30;;;;;;;15.00;2.55;;;11.90;99.90;;;;;;5035442;28;20077;-28
2023/01/01 05:37:56;;;;;;;12.15;2.85;;;11.90;99.90;;;;;;5034670;28;20480;-28
2023/01/01 05:40:22;;;;;;;15.32;2.85;;;11.80;99.90;;;;;;5033984;28;20095;-28
2023/01/01 05:42:50;;;;;;;10.40;2.83;;;11.90;99.90;;;;;;5034281;28;20484;-28
2023/01/01 05:45:16;;;;;;;8.13;2.42;;;11.80;99.90;;;;;;5033912;28;20041;-28
2023/01/01 05:47:41;;;;;;;11.63;2.25;;;11.90;99.90;;;;;;5035091;28;20496;-29
2023/01/01 05:50:08;;;;;;;14.63;2.85;;;11.90;92.30;;;;;;5033292;28;20045;-28
2023/01/01 05:52:34;;;;;;;8.57;2.80;;;11.80;99.90;;;;;;5033790;28;20052;-28
2023/01/01 05:55:00;;;;;;;8.50;1.83;;;11.80;49.00;;;;;;5033178;28;20054;-29
2023/01/01 05:57:27;;;;;;;11.88;2.30;;;11.70;99.90;;;;;;5033472;28;20049;-28
2023/01/01 05:59:53;;;;;;;6.35;1.63;;;11.70;99.90;;;;;;5034200;28;20056;-29
2023/01/01 06:02:19;;;;;;;11.43;2.80;;;11.70;1.00;;;;;;5033392;28;20041;-29
2023/01/01 06:04:45;;;;;;;7.03;1.23;;;11.70;1.00;;;;;;5033080;28;20053;-28
2023/01/01 06:07:11;;;;;;;6.43;1.90;;;11.70;99.90;;;;;;5034243;28;20113;-29
2023/01/01 06:09:37;;;;;;;11.52;2.42;;;11.70;99.90;;;;;;5000718;28;20048;-28
2023/01/01 06:12:03;;;;;;;8.77;2.50;;;11.60;99.90;;;;;;5000220;28;20052;-29
2023/01/01 06:14:29;;;;;;;11.80;2.78;;;11.60;1.00;;;;;;4999700;28;20119;-28
2023/01/01 06:16:54;;;;;;;9.07;2.00;;;11.60;99.90;;;;;;5034560;28;20103;-28
2023/01/01 06:19:20;;;;;;;12.05;2.88;;;11.60;99.90;;;;;;5033421;28;20099;-29
2023/01/01 06:21:46;;;;;;;12.82;2.65;;;11.60;96.80;;;;;;5033940;28;20041;-28
2023/01/01 06:24:12;;;;;;;13.43;2.85;;;11.50;99.90;;;;;;5016340;28;20100;-28
2023/01/01 06:26:37;;;;;;;11.50;2.15;;;11.50;78.00;;;;;;5016291;28;20124;-28
2023/01/01 06:29:03;;;;;;;10.00;2.35;;;11.50;99.90;;;;;;5033862;28;20055;-28
2023/01/01 06:31:30;;;;;;;10.95;2.50;;;11.40;99.90;;;;;;5033815;28;20049;-28
2023/01/01 06:33:56;;;;;;;8.80;1.38;;;11.40;1.00;;;;;;5000152;28;20041;-28
2023/01/01 06:36:23;;;;;;;15.30;2.17;;;11.40;22.30;;;;;;5016144;28;20045;-28
2023/01/01 06:38:52;;;;;;;12.13;2.05;;;11.40;41.70;;;;;;5033706;28;20132;-28
2023/01/01 06:41:23;;;;;;;10.75;2.00;;;11.40;99.90;;;;;;5033681;28;20049;-28
2023/01/01 06:43:49;;;;;;;12.68;1.95;;;11.30;96.80;;;;;;5016015;28;20392;-28
2023/01/01 06:46:16;;;;;;;8.95;2.08;;;11.30;93.20;;;;;;4999667;28;20053;-28
2023/01/01 06:48:42;;;;;;;14.13;1.92;;;11.30;49.80;;;;;;5033610;28;20052;-28
2023/01/01 06:51:16;;;;;;;13.10;2.08;;;11.30;1.00;;;;;;5016035;28;20041;-28
2023/01/01 06:53:42;;;;;;;13.98;2.95;;;11.30;1.00;;;;;;5034369;28;20380;-27
2023/01/01 06:56:08;;;;;;;13.68;2.28;;;11.20;99.90;;;;;;5016024;28;20045;-28
2023/01/01 06:58:34;;;;;;;16.60;2.80;;;11.20;99.90;;;;;;5033454;28;20045;-28
2023/01/01 07:01:27;;;;;;;18.83;3.53;;;11.20;99.90;;;;;;5016169;28;20464;-28
2023/01/01 07:04:00;;;;;;;15.88;2.97;;;11.10;1.00;;;;;;5033480;28;20483;-28
2023/01/01 07:06:28;;;;;;;14.18;2.55;;;11.20;73.80;;;;;;5026290;28;20058;-28
2023/01/01 07:08:54;;;;;;;12.38;3.03;;;11.10;99.90;;;;;;5033488;28;20108;-28
2023/01/01 07:11:20;;;;;;;11.45;1.73;;;11.10;99.90;;;;;;5032167;28;20472;-28
2023/01/01 07:13:46;;;;;;;15.07;3.85;;;11.00;99.90;;;;;;5033887;28;20052;-28
2023/01/01 07:16:12;;;;;;;15.93;2.88;;;11.00;1.00;;;;;;5033051;28;20049;-27
2023/01/01 07:18:38;;;;;;;12.73;1.88;;;11.00;99.90;;;;;;5033223;28;20049;-27
2023/01/01 07:21:06;;;;;;;15.00;2.03;;;11.00;99.90;;;;;;5032200;28;20388;-27
2023/01/01 07:23:34;;;;;;;16.48;3.20;;;11.00;99.90;;;;;;5032156;28;20053;-27
2023/01/01 07:26:00;;;;;;;17.30;3.85;;;10.90;99.90;;;;;;5032993;28;20400;-27
2023/01/01 07:28:26;;;;;;;13.65;3.05;;;10.90;99.90;;;;;;5033320;28;20049;-28
2023/01/01 07:30:53;;;;;;;22.23;3.28;;;11.00;99.90;;;;;;5037062;28;20392;-27
2023/01/01 07:33:21;;;;;;;16.13;3.13;;;10.90;99.90;;;;;;5037017;28;20041;-28
2023/01/01 07:35:47;;;;;;;14.90;3.03;;;10.90;99.90;;;;;;5038110;28;20068;-27
2023/01/01 07:38:13;;;;;;;20.50;4.32;;;10.90;99.90;;;;;;5037214;28;20053;-27
2023/01/01 07:40:40;;;;;;;23.25;4.47;;;10.80;1.00;;;;;;5036922;28;20060;-27
2023/01/01 07:43:06;;;;;;;26.95;3.78;;;10.80;1.00;;;;;;5036944;28;20057;-27
2023/01/01 07:45:33;;;;;;;24.83;3.63;;;10.90;1.00;;;;;;5036840;28;20046;-27
2023/01/01 07:47:59;;;;;;;15.50;2.75;;;10.80;10.40;;;;;;5036823;28;20053;-27
2023/01/01 07:50:28;;;;;;;16.88;3.10;;;10.80;1.00;;;;;;5036760;28;20045;-27
2023/01/01 07:52:54;;;;;;;21.27;4.18;;;10.80;1.00;;;;;;5036723;28;20137;-27
2023/01/01 07:55:20;;;;;;;22.83;3.72;;;10.80;1.00;;;;;;5036609;28;20041;-27
2023/01/01 07:57:46;;;;;;;28.00;4.32;;;10.80;14.70;;;;;;5037192;28;20495;-27
2023/01/01 08:00:15;;;;;;;20.08;4.15;;;10.80;12.30;;;;;;5036511;28;20099;-27
2023/01/01 08:02:41;;;;;;;16.63;3.67;;;10.70;8.90;;;;;;5036522;28;20085;-27
2023/01/01 08:05:08;;;;;;;19.85;3.63;;;10.60;1.00;;;;;;5035570;28;20091;-27
2023/01/01 08:07:33;;;;;;;22.92;4.68;;;10.60;82.60;;;;;;5037273;28;20085;-27
2023/01/01 08:09:59;;;;;;;20.55;2.97;;;10.70;99.90;;;;;;5036945;28;20049;-27
2023/01/01 08:12:26;;;;;;;28.75;4.47;;;10.70;99.90;;;;;;5036393;28;20395;-27
2023/01/01 08:14:51;;;;;;;26.55;4.63;;;10.70;1.00;;;;;;5002148;28;20041;-27
2023/01/01 08:17:17;;;;;;;22.23;5.22;;;10.70;56.10;;;;;;5036772;28;20045;-27
2023/01/01 08:19:43;;;;;;;20.50;3.92;;;10.70;16.40;;;;;;5036215;28;20064;-27
2023/01/01 08:22:10;;;;;;;24.70;4.50;;;10.70;99.90;;;;;;5036145;28;20049;-27
2023/01/01 08:24:36;;;;;;;26.08;6.55;;;10.70;90.90;;;;;;5036105;28;20046;-27
2023/01/01 08:27:01;;;;;;;21.25;3.95;;;10.80;77.70;;;;;;5035755;28;20042;-27
2023/01/01 08:29:27;;;;;;;26.67;4.43;;;10.70;41.80;;;;;;5035998;28;20098;-27
2023/01/01 08:31:53;;;;;;;25.38;4.32;;;10.80;99.90;;;;;;5035918;28;20506;-27
2023/01/01 08:34:18;;;;;;;25.90;4.60;;;10.70;99.90;;;;;;5035845;28;20041;-27
2023/01/01 08:36:44;;;;;;;24.33;4.18;;;10.80;99.90;;;;;;5035850;28;20056;-27
2023/01/01 08:39:10;;;;;;;30.88;4.40;;;10.80;99.90;;;;;;5035531;28;20139;-27
2023/01/01 08:41:36;;;;;;;21.30;4.45;;;10.70;30.00;;;;;;5017761;28;20052;-27
2023/01/01 08:44:02;;;;;;;31.75;3.67;;;10.70;99.90;;;;;;5018039;28;20048;-27
2023/01/01 08:46:28;;;;;;;15.70;3.42;;;10.80;99.90;;;;;;5035729;28;20103;-27
2023/01/01 08:48:53;;;;;;;16.65;3.90;;;10.70;99.90;;;;;;5035667;28;20049;-27
2023/01/01 08:51:19;;;;;;;19.17;3.70;;;10.70;99.90;;;;;;5035610;28;20373;-27
2023/01/01 08:53:45;;;;;;;27.48;4.47;;;10.70;99.90;;;;;;5036283;28;20084;-27
2023/01/01 08:56:16;;;;;;;20.75;4.32;;;10.80;99.90;;;;;;5035568;28;20056;-27
2023/01/01 08:58:42;;;;;;;23.38;4.30;;;10.70;99.90;;;;;;5018889;28;20052;-27
2023/01/01 09:01:09;;;;;;;23.80;4.35;;;10.70;99.90;;;;;;5017923;28;20081;-27
2023/01/01 09:03:35;;;;;;;26.38;4.57;;;10.80;99.90;;;;;;5018149;28;20052;-27
2023/01/01 09:06:01;;;;;;;20.13;3.47;;;10.80;99.90;;;;;;5006866;28;20491;-27
2023/01/01 09:08:27;;;;;;;21.42;4.20;;;10.80;99.90;;;;;;5017809;28;20065;-27
2023/01/01 09:10:56;;;;;;;24.08;5.38;;;10.80;99.90;;;;;;5034166;28;20045;-27
2023/01/01 09:13:22;;;;;;;26.77;5.30;;;10.80;99.90;;;;;;5034830;28;20538;-27
2023/01/01 09:15:48;;;;;;;20.17;3.78;;;10.80;99.90;;;;;;5035202;28;20053;-27
2023/01/01 09:18:14;;;;;;;25.27;4.70;;;10.80;99.90;;;;;;5035598;28;20049;-27
2023/01/01 09:20:40;;;;;;;20.67;4.90;;;10.80;99.90;;;;;;5034967;28;20049;-27
2023/01/01 09:23:07;;;;;;;28.80;4.60;;;10.80;99.90;;;;;;5035045;28;20051;-27
2023/01/01 09:25:34;;;;;;;20.30;4.50;;;10.80;60.60;;;;;;5034980;28;20369;-27
2023/01/01 09:28:02;;;;;;;22.48;4.18;;;10.80;99.90;;;;;;5033822;28;20045;-27
2023/01/01 09:30:29;;;;;;;27.23;3.95;;;10.80;1.00;;;;;;5035408;28;20353;-27
2023/01/01 09:32:54;;;;;;;29.77;5.30;;;10.90;57.40;;;;;;5035623;28;20384;-27
2023/01/01 09:35:20;;;;;;;27.10;4.50;;;10.90;9.70;;;;;;5034695;28;20052;-27
2023/01/01 09:37:46;;;;;;;23.30;5.40;;;10.90;1.00;;;;;;5034720;28;20462;-27
2023/01/01 09:40:43;;;;;;;26.92;5.18;;;10.90;1.00;;;;;;5017036;28;20532;-27
2023/01/01 09:43:28;;;;;;;22.40;4.28;;;10.90;1.00;;;;;;5035423;28;20045;-27
2023/01/01 09:46:05;;;;;;;22.90;4.88;;;10.80;90.50;;;;;;5035203;28;20072;-27
2023/01/01 09:48:32;;;;;;;19.83;4.30;;;10.80;18.50;;;;;;5034346;28;20438;-27
2023/01/01 09:51:01;;;;;;;23.95;4.20;;;10.90;1.00;;;;;;5034553;28;20041;-27
2023/01/01 09:53:40;;;;;;;35.10;5.70;;;11.00;1.00;;;;;;5032285;28;20053;-27
2023/01/01 09:56:13;;;;;;;24.05;5.13;;;11.00;45.50;;;;;;5034530;28;20054;-27
2023/01/01 09:58:39;;;;;;;18.90;4.63;;;11.00;48.00;;;;;;5034264;28;20519;-27
2023/01/01 10:01:17;;;;;;;28.20;5.00;;;11.00;19.90;;;;;;5034268;28;20045;-27
2023/01/01 10:04:11;;;;;;;29.25;4.95;;;11.00;1.00;;;;;;5016452;28;20042;-27
2023/01/01 10:06:42;;;;;;;;;;;11.00;33.70;;;;;;5033134;28;20064;-27
2023/01/01 10:09:26;;;;;;;17.90;4.03;;;11.10;1.00;;;;;;5034658;28;20334;-27
2023/01/01 10:11:56;;;;;;;24.30;4.50;;;11.10;1.00;;;;;;5034661;28;20049;-27
2023/01/01 10:14:40;;;;;;;21.83;3.20;;;11.10;1.00;;;;;;5034027;28;20046;-27
2023/01/01 10:17:20;;;;;;;23.50;5.32;;;11.20;1.00;;;;;;5034115;28;20454;-27
2023/01/01 10:19:52;;;;;;;26.30;4.90;;;11.20;1.00;;;;;;5034071;28;20049;-27
2023/01/01 10:22:27;;;;;;;30.25;5.35;;;11.20;1.00;;;;;;5034007;28;20056;-27
2023/01/01 10:24:56;;;;;;;26.40;5.60;;;11.30;99.90;;;;;;5033667;28;20436;-27
2023/01/01 10:27:36;;;;;;;29.38;4.75;;;11.30;99.90;;;;;;5033556;28;20491;-27
2023/01/01 10:30:11;;;;;;;23.00;4.88;;;11.30;99.90;;;;;;5033019;28;20438;-27
2023/01/01 10:32:39;;;;;;;24.35;4.78;;;11.20;99.90;;;;;;5032711;28;20045;-27
2023/01/01 10:35:14;;;;;;;16.27;3.83;;;11.20;1.00;;;;;;5032828;28;20050;-27
2023/01/01 10:37:41;;;;;;;25.13;4.18;;;11.10;1.00;;;;;;5033786;28;20483;-27
2023/01/01 10:40:18;;;;;;;19.17;4.53;;;11.10;1.00;;;;;;5034504;28;20052;-27
2023/01/01 10:42:49;;;;;;;22.35;4.50;;;11.00;1.00;;;;;;5033780;28;20053;-27
2023/01/01 10:45:18;;;;;;;20.48;4.07;;;11.00;99.90;;;;;;5033656;28;20045;-26
2023/01/01 10:48:10;;;;;;;22.38;3.92;;;11.00;1.00;;;;;;5033869;28;20045;-27
2023/01/01 10:50:47;;;;;;;22.08;3.88;;;10.90;1.00;;;;;;5032667;28;20045;-27
2023/01/01 10:53:52;;;;;;;24.92;3.63;;;10.90;1.00;;;;;;5032609;28;20487;-27
2023/01/01 10:56:23;;;;;;;22.63;3.90;;;11.00;1.00;;;;;;5034170;28;20087;-27
2023/01/01 10:58:51;;;;;;;29.35;3.63;;;11.00;1.00;;;;;;5033766;28;20049;-27
2023/01/01 11:01:16;;;;;;;20.95;3.50;;;11.00;1.00;;;;;;5033551;28;20144;-27
2023/01/01 11:04:06;;;;;;;22.40;4.68;;;11.10;34.90;;;;;;5032284;28;20539;-27
2023/01/01 11:06:37;;;;;;;24.10;4.07;;;11.10;1.00;;;;;;5037057;28;20054;-26
2023/01/01 11:09:06;;;;;;;22.20;3.63;;;11.10;1.00;;;;;;5003475;28;20107;-27
2023/01/01 11:11:42;;;;;;;27.63;4.28;;;11.10;1.00;;;;;;5038015;28;20395;-27
2023/01/01 11:14:20;;;;;;;18.73;2.83;;;11.20;99.90;;;;;;5020026;28;20045;-27
2023/01/01 11:16:47;;;;;;;16.40;3.10;;;11.20;1.00;;;;;;5037056;28;20476;-27
2023/01/01 11:19:31;;;;;;;18.13;4.22;;;11.20;1.00;;;;;;5020635;28;20060;-27
2023/01/01 11:21:57;;;;;;;17.08;3.85;;;11.20;99.90;;;;;;5020161;28;20092;-27
2023/01/01 11:24:26;;;;;;;20.85;4.25;;;11.20;96.20;;;;;;5019505;28;20488;-26
2023/01/01 11:26:53;;;;;;;14.98;3.58;;;11.20;99.90;;;;;;5037678;28;20129;-27
2023/01/01 11:29:24;;;;;;;20.58;4.07;;;11.20;18.10;;;;;;5037906;28;20367;-27
2023/01/01 11:31:51;;;;;;;24.45;3.83;;;11.20;1.00;;;;;;5037087;28;20045;-26
2023/01/01 11:34:34;;;;;;;15.45;3.35;;;11.30;99.90;;;;;;5037513;28;20447;-27
2023/01/01 11:37:07;;;;;;;16.63;2.95;;;11.20;1.00;;;;;;5037604;28;20124;-27
2023/01/01 11:39:36;;;;;;;23.17;4.50;;;11.20;1.00;;;;;;5036989;28;20103;-27
2023/01/01 11:42:03;;;;;;;18.58;3.38;;;11.20;1.00;;;;;;5036880;28;20049;-26
2023/01/01 11:44:31;;;;;;;13.05;2.70;;;11.20;57.60;;;;;;5036789;28;20037;-27
2023/01/01 11:46:58;;;;;;;19.23;3.80;;;11.20;1.00;;;;;;5019657;28;20053;-26
2023/01/01 11:49:27;;;;;;;21.45;3.63;;;11.30;1.00;;;;;;5036685;28;20118;-27
2023/01/01 11:51:53;;;;;;;24.17;3.25;;;11.20;99.90;;;;;;5036935;28;20041;-27
2023/01/01 11:54:31;;;;;;;20.30;3.00;;;11.20;99.90;;;;;;5036583;28;20088;-26
2023/01/01 11:57:21;;;;;;;27.70;4.20;;;11.30;2.70;;;;;;5037510;28;20053;-26
2023/01/01 11:59:58;;;;;;;22.58;3.25;;;11.30;1.00;;;;;;5020352;28;20041;-27
2023/01/01 12:02:39;;;;;;;14.27;3.05;;;11.30;99.90;;;;;;5036459;28;20056;-26
2023/01/01 12:05:24;;;;;;;20.17;4.22;;;11.40;99.90;;;;;;5018911;28;20052;-26
2023/01/01 12:07:51;;;;;;;21.52;4.47;;;11.40;67.80;;;;;;5037750;28;20100;-27
2023/01/01 12:10:25;;;;;;;17.30;3.55;;;11.40;99.90;;;;;;5036368;28;20053;-27
2023/01/01 12:13:04;;;;;;;20.23;3.65;;;11.50;1.00;;;;;;5036360;28;20096;-26
2023/01/01 12:15:36;;;;;;;20.63;4.03;;;11.50;1.00;;;;;;5018903;28;20128;-27
2023/01/01 12:18:17;;;;;;;21.70;4.00;;;11.50;1.00;;;;;;5018706;28;20099;-27
2023/01/01 12:20:53;;;;;;;23.45;4.40;;;11.50;1.00;;;;;;5036933;28;20095;-26
2023/01/01 12:23:19;;;;;;;18.23;3.92;;;11.60;1.00;;;;;;5019036;28;20127;-26
2023/01/01 12:25:53;;;;;;;19.80;4.07;;;11.60;99.90;;;;;;5019338;28;20479;-27
2023/01/01 12:28:25;;;;;;;20.33;3.50;;;11.60;99.90;;;;;;5018354;28;20485;-27
2023/01/01 12:31:12;;;;;;;17.45;3.47;;;11.60;1.00;;;;;;5036027;28;20127;-27
2023/01/01 12:34:02;;;;;;;19.33;3.90;;;11.60;99.90;;;;;;5036162;28;20443;-27
2023/01/01 12:36:37;;;;;;;20.77;3.42;;;11.70;1.00;;;;;;5036239;28;20049;-26
2023/01/01 12:39:15;;;;;;;20.20;4.97;;;11.80;90.90;;;;;;5002841;28;20140;-27
2023/01/01 12:41:51;;;;;;;19.13;3.47;;;11.80;99.90;;;;;;5035732;28;20053;-26
2023/01/01 12:44:45;;;;;;;22.60;3.22;;;11.90;99.90;;;;;;5018617;28;20432;-27
2023/01/01 12:47:22;;;;;;;20.95;3.78;;;11.90;99.90;;;;;;5035716;28;20053;-27
2023/01/01 12:50:09;;;;;;;15.40;3.53;;;11.80;1.00;;;;;;5036238;28;20107;-27
2023/01/01 12:52:50;;;;;;;17.92;3.30;;;11.80;1.00;;;;;;5035664;28;20063;-27
2023/01/01 12:55:53;;;;;;;15.82;3.28;;;11.80;1.00;;;;;;5035754;28;20052;-26
2023/01/01 12:58:28;;;;;;;14.13;3.05;;;11.80;1.00;;;;;;5035403;28;20507;-27
2023/01/01 13:01:07;;;;;;;21.90;4.10;;;11.80;1.00;;;;;;5036009;28;20049;-26
2023/01/01 13:03:41;;;;;;;16.38;3.05;;;11.70;1.00;;;;;;5035672;28;20045;-26
2023/01/01 13:06:10;;;;;;;16.65;2.90;;;11.80;1.00;;;;;;5035269;28;20463;-27
2023/01/01 13:08:38;;;;;;;18.40;3.30;;;11.70;99.90;;;;;;5035228;28;20053;-27